Latest Weather Observations for Merimbula

IDN60801

Issued at 8:32 pm EDT Thursday 23 February 2017 (issued every 30 minutes, with the page automatically refreshed every 10 minutes)

About weather observations | Map of weather stations | Latest weather observations for NSW | Other Formats
Station Details ID: 069147 Name: MERIMBULA AIRPORT AWS Lat: -36.91 Lon: 149.90 Height: 1.5 m
Data from the previous 72 hours. | See also: Recent months at Merimbula
Date/Time
EDT
Temp
°C
App
Temp
°C
Dew
Point
°C
Rel
Hum
%
Delta-T
°C
Wind Press
QNH
hPa
Press
MSL
hPa
Rain since
9am
mm
Dir  Spd
km/h
Gust
km/h
Spd
kts
Gust
kts
23/08:30pm 20.3 19.7 14.7 70 3.3 S 11 17 6 9 1019.4 1019.4 0.0
23/08:00pm 20.8 19.0 15.6 72 3.1 SSE 19 32 10 17 1018.8 1018.8 0.0
23/07:30pm 21.2 19.3 15.7 71 3.3 SSE 20 35 11 19 1018.4 1018.4 0.0
23/07:00pm 21.4 19.6 15.9 71 3.3 SE 20 28 11 15 1018.1 1018.1 0.0
23/06:30pm 21.8 19.5 15.6 68 3.7 SE 22 35 12 19 1017.7 1017.7 0.0
23/06:00pm 23.1 21.0 16.2 65 4.2 SE 22 32 12 17 1017.2 1017.2 0.0
23/05:30pm 23.6 21.4 15.9 62 4.7 SE 22 32 12 17 1016.9 1016.9 0.0
23/05:00pm 24.0 21.4 15.8 60 5.0 SE 24 43 13 23 1016.4 1016.4 0.0
23/04:30pm 24.6 21.6 14.7 54 5.9 SE 24 35 13 19 1015.9 1015.9 0.0
23/04:00pm 24.9 22.7 16.9 61 4.9 SSE 24 33 13 18 1015.7 1015.7 0.0
23/03:30pm 24.7 23.1 17.4 64 4.5 SE 22 35 12 19 1015.5 1015.5 0.0
23/03:00pm 25.4 24.5 19.1 68 4.0 SE 22 39 12 21 1015.4 1015.4 0.0
23/02:30pm 26.2 25.3 19.8 68 4.1 SE 24 37 13 20 1015.2 1015.2 0.0
23/02:00pm 26.2 25.6 19.8 68 4.1 SE 22 30 12 16 1014.6 1014.6 0.0
23/01:30pm 27.2 26.4 18.5 59 5.6 E 20 32 11 17 1014.5 1014.5 0.0
23/01:00pm 28.0 27.3 18.7 57 6.0 ENE 20 26 11 14 1014.4 1014.4 0.0
23/12:30pm 28.7 28.9 19.3 56 6.1 ENE 17 26 9 14 1014.6 1014.6 0.0
23/12:00pm 28.4 29.0 18.5 55 6.3 NE 13 20 7 11 1014.9 1014.9 0.0
23/11:30am 27.0 26.9 17.8 57 5.8 ENE 15 24 8 13 1015.1 1015.1 0.0
23/11:00am 26.2 26.1 17.8 60 5.3 NE 15 22 8 12 1015.4 1015.4 0.0
23/10:30am 25.2 25.3 17.4 62 4.9 NE 13 20 7 11 1015.6 1015.6 0.0
23/10:00am 24.9 25.0 17.4 63 4.7 E 13 17 7 9 1015.8 1015.8 0.0
23/09:30am 23.9 26.4 17.2 66 4.1 CALM 0 0 0 0 1015.8 1015.8 0.0
23/09:00am 22.0 24.5 17.2 74 2.9 CALM 0 0 0 0 1015.9 1015.9 0.0
23/08:30am 20.0 22.8 18.0 88 1.2 CALM 0 0 0 0 1015.5 1015.5 0.0
23/08:00am 18.1 20.7 17.5 96 0.4 CALM 0 0 0 0 1015.6 1015.6 0.0
23/07:30am 16.2 18.0 15.4 95 0.5 CALM 0 0 0 0 1015.5 1015.5 0.0
23/07:00am 15.5 17.0 14.7 95 0.5 CALM 0 0 0 0 1015.2 1015.2 0.0
23/06:30am 15.1 16.4 14.0 93 0.6 CALM 0 0 0 0 1015.1 1015.1 0.0
23/06:00am 15.3 15.9 14.2 93 0.6 SSW 4 9 2 5 1015.0 1015.0 0.0
23/05:30am 15.1 16.3 13.8 92 0.7 CALM 0 0 0 0 1014.7 1014.7 0.0
23/05:00am 15.6 17.0 14.3 92 0.7 CALM 0 0 0 0 1014.7 1014.7 0.0
23/04:30am 15.8 17.2 14.5 92 0.7 CALM 0 0 0 0 1014.6 1014.6 0.0
23/04:00am 16.4 18.1 15.1 92 0.8 CALM 0 0 0 0 1014.6 1014.6 0.0
23/03:30am 16.7 18.4 15.1 90 0.9 CALM 0 0 0 0 1014.7 1014.7 0.0
23/03:00am 16.9 18.5 14.9 88 1.2 CALM 0 0 0 0 1014.9 1014.9 0.0
23/02:30am 17.7 19.5 15.5 87 1.3 CALM 0 0 0 0 1015.2 1015.2 0.0
23/02:00am 18.7 19.9 15.9 84 1.7 N 4 7 2 4 1015.2 1015.2 0.0
23/01:30am 20.2 21.0 17.2 83 1.8 NNW 9 13 5 7 1015.5 1015.5 0.0
23/01:00am 21.3 21.4 17.5 79 2.3 NNW 13 20 7 11 1015.6 1015.6 0.0
23/12:30am 19.3 20.7 17.4 89 1.2 NNW 6 11 3 6 1015.7 1015.7 0.0
23/12:00am 19.1 21.2 16.3 84 1.7 CALM 0 0 0 0 1016.3 1016.3 0.0
 
Date/Time
EDT
Temp
°C
App
Temp
°C
Dew
Point
°C
Rel
Hum
%
Delta-T
°C
Wind Press
QNH
hPa
Press
MSL
hPa
Rain since
9am
mm
Dir  Spd
km/h
Gust
km/h
Spd
kts
Gust
kts
22/11:30pm 19.8 21.8 16.1 79 2.2 CALM 0 0 0 0 1016.5 1016.5 0.0
22/11:00pm 21.3 23.3 16.9 76 2.7 N 2 9 1 5 1016.5 1016.5 0.0
22/10:30pm 22.4 23.8 17.8 75 2.9 N 7 11 4 6 1016.4 1016.4 0.0
22/10:00pm 22.7 24.1 17.8 74 3.0 NNE 7 15 4 8 1016.3 1016.3 0.0
22/09:30pm 23.1 23.8 18.0 73 3.2 NNE 11 20 6 11 1015.9 1015.9 0.0
22/09:00pm 23.3 23.0 18.2 73 3.2 NNE 17 30 9 16 1015.5 1015.5 0.0
22/08:30pm 23.5 23.8 17.9 71 3.5 NNE 13 24 7 13 1015.1 1015.1 0.0
22/08:00pm 23.9 23.5 18.1 70 3.6 NNE 17 32 9 17 1014.7 1014.7 0.0
22/07:30pm 23.9 24.0 18.3 71 3.5 NE 15 26 8 14 1014.5 1014.5 0.0
22/07:00pm 24.4 24.0 18.1 68 4.0 NE 17 28 9 15 1014.3 1014.3 0.0
22/06:30pm 24.9 24.1 17.9 65 4.4 NNE 19 32 10 17 1013.8 1013.8 0.0
22/06:00pm 25.2 23.2 17.4 62 4.9 NNE 24 44 13 24 1013.6 1013.6 0.0
22/05:30pm 25.3 22.4 17.0 60 5.1 NNE 28 50 15 27 1013.7 1013.7 0.0
22/05:00pm 25.6 22.1 16.5 57 5.6 NNE 30 63 16 34 1013.6 1013.6 0.0
22/04:30pm 25.8 22.7 16.6 56 5.7 NE 28 48 15 26 1013.9 1013.9 0.0
22/04:00pm 26.1 23.0 16.6 55 5.9 NNE 28 54 15 29 1014.2 1014.2 0.0
22/03:30pm 26.1 23.1 17.7 60 5.3 NNE 30 56 16 30 1014.4 1014.4 0.0
22/03:18pm 26.1 23.4 17.5 59 5.4 NNE 28 46 15 25 1014.7 1014.7 0.0
22/03:00pm 26.2 23.9 17.6 59 5.4 NNE 26 46 14 25 1015.1 1015.1 0.0
22/02:32pm 25.7 22.9 17.4 60 5.2 NNE 28 48 15 26 1015.4 1015.4 0.0
22/02:30pm 25.7 23.3 17.4 60 5.2 NNE 26 48 14 26 1015.5 1015.5 0.0
22/02:13pm 25.6 22.8 17.3 60 5.2 NNE 28 52 15 28 1015.7 1015.7 0.0
22/02:00pm 26.0 24.2 17.9 61 5.1 NE 24 39 13 21 1015.9 1015.9 0.0
22/01:30pm 25.5 23.1 17.4 61 5.1 NE 26 41 14 22 1016.4 1016.4 0.0
22/01:00pm 25.4 23.9 16.8 59 5.3 NE 20 37 11 20 1016.7 1016.7 0.0
22/12:30pm 25.1 23.7 17.1 61 5.0 NE 20 37 11 20 1017.2 1017.2 0.0
22/12:00pm 24.6 22.7 16.8 62 4.8 NE 22 37 12 20 1017.6 1017.6 0.0
22/11:30am 24.2 22.3 16.7 63 4.6 NE 22 37 12 20 1018.0 1018.0 0.0
22/11:00am 23.8 23.0 17.1 66 4.1 NE 17 26 9 14 1018.5 1018.5 0.0
22/10:30am 23.0 21.6 16.5 67 4.0 NE 19 26 10 14 1018.9 1018.9 0.0
22/10:00am 22.7 21.6 15.3 63 4.4 NE 15 22 8 12 1019.2 1019.2 0.0
22/09:30am 22.5 22.8 14.9 62 4.5 E 7 17 4 9 1019.4 1019.4 0.0
22/09:00am 21.0 22.0 14.4 66 3.8 NNE 2 7 1 4 1019.6 1019.6 0.0
22/08:30am 18.9 20.1 13.7 72 3.0 CALM 0 0 0 0 1019.7 1019.7 0.0
22/08:00am 16.7 16.6 14.0 84 1.5 NW 7 9 4 5 1019.6 1019.6 0.0
22/07:30am 14.5 15.1 13.0 91 0.8 SW 2 6 1 3 1019.5 1019.5 0.0
22/07:00am 13.6 13.0 12.2 91 0.8 SW 7 9 4 5 1019.4 1019.4 0.0
22/06:30am 13.6 12.9 12.0 90 0.9 WSW 7 7 4 4 1019.2 1019.2 0.0
22/06:00am 13.6 12.9 12.0 90 0.9 WSW 7 7 4 4 1018.9 1018.9 0.0
22/05:30am 13.7 13.1 11.8 88 1.0 WSW 6 7 3 4 1018.9 1018.9 0.0
22/05:00am 13.8 14.2 11.3 85 1.3 CALM 0 0 0 0 1018.9 1018.9 0.0
22/04:30am 14.4 13.8 11.6 83 1.5 WNW 6 7 3 4 1019.1 1019.1 0.0
22/04:00am 15.3 16.0 12.1 81 1.7 CALM 0 0 0 0 1019.3 1019.3 0.0
22/03:30am 16.0 16.6 11.8 76 2.3 CALM 0 0 0 0 1019.6 1019.6 0.0
22/03:00am 17.2 18.0 12.7 75 2.5 CALM 0 0 0 0 1019.8 1019.8 0.0
22/02:30am 17.4 18.4 13.1 76 2.4 CALM 0 0 0 0 1020.2 1020.2 0.0
22/02:00am 17.4 18.2 12.7 74 2.6 CALM 0 0 0 0 1020.5 1020.5 0.0
22/01:30am 18.0 19.0 13.3 74 2.7 CALM 0 0 0 0 1020.8 1020.8 0.0
22/01:00am 18.2 18.1 13.3 73 2.8 NW 6 9 3 5 1021.3 1021.3 0.0
22/12:30am 18.6 18.8 13.2 71 3.0 NNW 4 7 2 4 1021.6 1021.6 0.0
22/12:00am 18.8 18.4 12.5 67 3.5 NNE 6 7 3 4 1021.9 1021.9 0.0
 
Date/Time
EDT
Temp
°C
App
Temp
°C
Dew
Point
°C
Rel
Hum
%
Delta-T
°C
Wind Press
QNH
hPa
Press
MSL
hPa
Rain since
9am
mm
Dir  Spd
km/h
Gust
km/h
Spd
kts
Gust
kts
21/11:30pm 18.7 18.3 12.5 67 3.5 NE 6 7 3 4 1022.1 1022.1 0.0
21/11:00pm 18.8 18.4 12.3 66 3.6 NE 6 11 3 6 1022.3 1022.3 0.0
21/10:30pm 18.9 17.9 12.2 65 3.7 NE 9 13 5 7 1022.4 1022.4 0.0
21/10:00pm 19.0 17.9 12.0 64 3.9 NE 9 15 5 8 1022.3 1022.3 0.0
21/09:30pm 18.9 17.0 11.9 64 3.9 ENE 13 17 7 9 1022.1 1022.1 0.0
21/09:00pm 18.8 17.3 11.9 64 3.8 ENE 11 17 6 9 1021.9 1021.9 0.0
21/08:30pm 18.7 17.6 12.0 65 3.7 ENE 9 13 5 7 1021.8 1021.8 0.0
21/08:00pm 18.5 17.0 11.8 65 3.7 E 11 15 6 8 1021.7 1021.7 0.0
21/07:30pm 18.6 17.0 11.4 63 3.9 E 11 15 6 8 1021.5 1021.5 0.0
21/07:00pm 19.7 18.1 11.5 59 4.5 E 11 19 6 10 1021.2 1021.2 0.0
21/06:30pm 20.2 18.6 11.4 57 4.8 E 11 17 6 9 1020.8 1020.8 0.0
21/06:00pm 20.4 18.6 10.8 54 5.2 E 11 17 6 9 1020.6 1020.6 0.0
21/05:30pm 21.0 19.0 11.6 55 5.2 E 13 20 7 11 1020.4 1020.4 0.0
21/05:00pm 21.0 18.2 11.3 54 5.3 ESE 17 26 9 14 1020.4 1020.4 0.0
21/04:30pm 21.4 19.0 11.4 53 5.5 ESE 15 26 8 14 1020.3 1020.3 0.0
21/04:00pm 21.8 19.5 11.8 53 5.6 ESE 15 22 8 12 1020.1 1020.1 0.0
21/03:30pm 21.9 19.4 11.0 50 6.0 ESE 15 26 8 14 1020.1 1020.1 0.0
21/03:00pm 22.7 20.3 12.6 53 5.7 ESE 17 26 9 14 1020.1 1020.1 0.0
21/02:30pm 22.3 19.3 10.8 48 6.3 ESE 17 24 9 13 1020.0 1020.0 0.0
21/02:00pm 22.2 19.1 10.4 47 6.4 ESE 17 26 9 14 1020.3 1020.3 0.0
21/01:30pm 22.0 18.7 9.5 45 6.7 ESE 17 30 9 16 1020.3 1020.3 0.0
21/01:00pm 22.3 19.1 10.1 46 6.6 ESE 17 24 9 13 1020.4 1020.4 0.0
21/12:30pm 21.4 18.0 9.3 46 6.5 ESE 17 22 9 12 1020.7 1020.7 0.0
21/12:00pm 21.4 18.7 10.3 49 6.0 ESE 15 24 8 13 1020.9 1020.9 0.0
21/11:30am 20.9 18.2 10.4 51 5.7 ESE 15 20 8 11 1021.2 1021.2 0.0
21/11:00am 20.4 17.5 9.6 50 5.7 E 15 20 8 11 1021.3 1021.3 0.0
21/10:30am 19.6 16.8 8.6 49 5.7 E 13 17 7 9 1021.4 1021.4 0.0
21/10:00am 19.1 16.9 9.3 53 5.1 E 11 17 6 9 1021.5 1021.5 0.0
21/09:30am 18.9 18.6 8.6 51 5.3 CALM 0 7 0 4 1021.3 1021.3 0.0
21/09:00am 17.4 16.8 7.5 52 5.0 CALM 0 0 0 0 1020.9 1020.9 0.0
21/08:30am 15.3 14.9 8.1 62 3.6 CALM 0 0 0 0 1020.7 1020.7 0.0
21/08:00am 12.8 12.5 8.5 75 2.1 CALM 0 0 0 0 1020.5 1020.5 0.0
21/07:30am 11.0 10.9 9.6 91 0.7 CALM 0 0 0 0 1019.9 1019.9 0.0
21/07:00am 9.2 7.4 7.3 88 0.9 SW 6 9 3 5 1019.5 1019.5 0.0
21/06:30am 10.0 8.2 7.9 87 1.0 WSW 7 9 4 5 1019.1 1019.1 0.0
21/06:00am 9.9 8.2 7.7 86 1.0 WSW 6 9 3 5 1018.7 1018.7 0.0
21/05:30am 10.0 7.7 7.6 85 1.1 WSW 9 13 5 7 1018.5 1018.5 0.0
21/05:00am 10.4 8.1 7.3 81 1.5 SSW 9 9 5 5 1018.1 1018.1 0.0
21/04:30am 10.8 8.5 7.3 79 1.7 SSW 9 11 5 6 1017.9 1017.9 0.0
21/04:00am 12.0 9.9 8.1 77 1.9 WNW 9 13 5 7 1017.8 1017.8 0.0
21/03:30am 12.4 9.7 9.1 80 1.7 NW 13 17 7 9 1017.7 1017.7 0.0
21/03:00am 12.5 10.0 9.7 83 1.4 NW 13 17 7 9 1017.6 1017.6 0.0
21/02:30am 10.1 9.4 6.8 80 1.6 CALM 0 7 0 4 1017.7 1017.7 0.0
21/02:00am 10.9 10.3 7.4 79 1.7 CALM 0 0 0 0 1017.7 1017.7 0.0
21/01:30am 12.2 10.6 8.9 80 1.6 W 7 11 4 6 1017.6 1017.6 0.0
21/01:00am 11.6 10.3 7.7 77 1.9 W 4 11 2 6 1017.7 1017.7 0.0
21/12:30am 12.3 10.2 8.4 77 1.9 SSW 9 11 5 6 1017.6 1017.6 0.0
21/12:00am 13.2 11.7 9.1 76 2.1 WSW 7 9 4 5 1017.4 1017.4 0.0
 
Date/Time
EDT
Temp
°C
App
Temp
°C
Dew
Point
°C
Rel
Hum
%
Delta-T
°C
Wind Press
QNH
hPa
Press
MSL
hPa
Rain since
9am
mm
Dir  Spd
km/h
Gust
km/h
Spd
kts
Gust
kts
20/11:30pm 14.0 13.7 8.6 70 2.7 CALM 0 0 0 0 1017.2 1017.2 0.0
20/11:00pm 14.7 14.4 8.6 67 3.1 CALM 0 0 0 0 1016.9 1016.9 0.0
20/10:30pm 14.8 14.6 9.0 68 3.0 CALM 0 0 0 0 1016.3 1016.3 0.0
20/10:00pm 14.2 12.5 7.7 65 3.2 NNE 6 7 3 4 1016.1 1016.1 0.0
20/09:30pm 16.1 14.3 8.1 59 4.0 SSW 7 9 4 5 1015.7 1015.7 0.0
20/09:00pm 17.4 16.8 7.5 52 5.0 CALM 0 4 0 2 1015.2 1015.2 0.0

Other Formats:

Comma delimited format used in spreadsheet applications
http://www.bom.gov.au/fwo/IDN60801/IDN60801.95929.axf

JavaScript Object Notation format (JSON) in row-major order
http://www.bom.gov.au/fwo/IDN60801/IDN60801.95929.json